createdAt,value
2023-11-10T00:00:13.620Z,6.40
2023-11-10T00:02:44.000Z,5.90
2023-11-10T00:05:11.409Z,5.60
2023-11-10T00:07:39.796Z,4.90
2023-11-10T00:10:08.835Z,4.90
2023-11-10T00:12:36.369Z,5.10
2023-11-10T00:15:03.844Z,5.90
2023-11-10T00:17:31.111Z,5.80
2023-11-10T00:19:59.319Z,5.20
2023-11-10T00:22:26.334Z,4.60
2023-11-10T00:24:54.483Z,4.90
2023-11-10T00:27:21.978Z,5.30
2023-11-10T00:29:49.191Z,5.40
2023-11-10T00:32:16.509Z,5.10
2023-11-10T00:34:43.595Z,4.70
2023-11-10T00:37:10.757Z,4.70
2023-11-10T00:39:37.915Z,4.60
2023-11-10T00:42:05.252Z,4.70
2023-11-10T00:44:32.364Z,4.80
2023-11-10T00:47:00.898Z,5.00
2023-11-10T00:49:28.128Z,5.30
2023-11-10T00:51:55.132Z,5.00
2023-11-10T00:54:22.211Z,4.80
2023-11-10T00:56:49.232Z,5.20
2023-11-10T00:59:16.238Z,4.80
2023-11-10T01:01:44.235Z,5.50
2023-11-10T01:04:11.720Z,5.30
2023-11-10T01:06:39.337Z,5.30
2023-11-10T01:09:06.527Z,5.20
2023-11-10T01:11:34.026Z,5.90
2023-11-10T01:14:01.220Z,5.80
2023-11-10T01:16:30.433Z,5.40
2023-11-10T01:18:57.686Z,5.10
2023-11-10T01:21:24.833Z,5.40
2023-11-10T01:23:53.837Z,4.90
2023-11-10T01:26:21.254Z,5.40
2023-11-10T01:28:48.653Z,6.30
2023-11-10T01:31:17.113Z,5.70
2023-11-10T01:33:45.113Z,5.40
2023-11-10T01:36:12.811Z,5.40
2023-11-10T01:38:41.635Z,7.00
2023-11-10T01:41:10.526Z,7.50
2023-11-10T01:43:37.607Z,6.90
2023-11-10T01:46:05.590Z,7.10
2023-11-10T01:48:32.668Z,7.60
2023-11-10T01:50:59.770Z,7.20
2023-11-10T01:53:27.101Z,7.00
2023-11-10T01:55:54.068Z,7.00
2023-11-10T01:58:21.029Z,6.40
2023-11-10T02:00:50.546Z,6.60
2023-11-10T02:03:18.018Z,6.90
2023-11-10T02:05:45.117Z,6.90
2023-11-10T02:08:12.695Z,6.30
2023-11-10T02:10:40.525Z,6.10
2023-11-10T02:13:07.620Z,6.60
2023-11-10T02:15:35.367Z,6.00
2023-11-10T02:18:02.602Z,6.40
2023-11-10T02:20:30.005Z,6.30
2023-11-10T02:22:57.077Z,5.80
2023-11-10T02:25:24.225Z,6.40
2023-11-10T02:27:53.979Z,6.30
2023-11-10T02:30:21.101Z,6.60
2023-11-10T02:32:48.587Z,6.80
2023-11-10T02:35:16.535Z,6.60
2023-11-10T02:37:43.726Z,7.00
2023-11-10T02:40:11.456Z,6.60
2023-11-10T02:42:39.754Z,7.00
2023-11-10T02:45:07.484Z,7.30
2023-11-10T02:47:35.364Z,6.40
2023-11-10T02:50:02.616Z,6.80
2023-11-10T02:52:29.740Z,6.40
2023-11-10T02:54:56.809Z,6.00
2023-11-10T02:57:24.651Z,6.90
2023-11-10T02:59:51.956Z,6.50
2023-11-10T03:02:19.503Z,6.20
2023-11-10T03:04:46.871Z,7.00
2023-11-10T03:07:14.348Z,7.10
2023-11-10T03:09:42.351Z,6.60
2023-11-10T03:12:10.363Z,6.70
2023-11-10T03:14:38.211Z,7.60
2023-11-10T03:17:06.655Z,7.10
2023-11-10T03:19:33.767Z,7.30
2023-11-10T03:22:00.844Z,7.20
2023-11-10T03:24:27.943Z,6.40
2023-11-10T03:26:55.674Z,7.40
2023-11-10T03:29:22.796Z,7.10
2023-11-10T03:31:50.014Z,7.00
2023-11-10T03:34:17.718Z,6.80
2023-11-10T03:36:45.295Z,7.60
2023-11-10T03:39:12.529Z,7.70
2023-11-10T03:41:39.697Z,8.30
2023-11-10T03:44:07.948Z,8.60
2023-11-10T03:46:35.086Z,8.60
2023-11-10T03:49:02.187Z,9.00
2023-11-10T03:51:29.469Z,9.00
2023-11-10T03:53:56.567Z,8.40
2023-11-10T03:56:23.934Z,8.20
2023-11-10T03:58:50.960Z,8.50
2023-11-10T04:03:39.834Z,8.00
2023-11-10T04:12:56.890Z,7.80
2023-11-10T04:15:24.231Z,7.70
2023-11-10T04:17:51.495Z,7.60
2023-11-10T04:20:18.891Z,7.50
2023-11-10T04:22:46.435Z,7.70
2023-11-10T04:25:14.184Z,8.20
2023-11-10T04:27:42.970Z,8.50
2023-11-10T04:30:11.888Z,8.40
2023-11-10T04:32:47.688Z,7.90
2023-11-10T04:35:17.759Z,8.20
2023-11-10T04:37:44.923Z,8.20
2023-11-10T04:40:12.661Z,8.30
2023-11-10T04:42:43.152Z,8.00
2023-11-10T04:45:13.909Z,7.90
2023-11-10T04:47:41.940Z,7.80
2023-11-10T04:50:10.114Z,7.10
2023-11-10T04:52:37.813Z,7.20
2023-11-10T04:55:05.489Z,7.80
2023-11-10T04:57:32.881Z,8.00
2023-11-10T05:00:02.401Z,7.90
2023-11-10T05:02:29.927Z,7.30
2023-11-10T05:05:00.390Z,8.20
2023-11-10T05:07:28.728Z,7.70
2023-11-10T05:09:56.295Z,8.50
2023-11-10T05:12:24.378Z,8.10
2023-11-10T05:14:51.909Z,7.60
2023-11-10T05:17:19.168Z,7.30
2023-11-10T05:19:46.324Z,7.70
2023-11-10T05:22:14.733Z,7.40
2023-11-10T05:24:44.945Z,8.00
2023-11-10T05:27:12.165Z,7.60
2023-11-10T05:29:39.508Z,7.70
2023-11-10T05:32:07.173Z,7.70
2023-11-10T05:34:34.415Z,7.80
2023-11-10T05:37:02.874Z,8.30
2023-11-10T05:39:30.513Z,8.10
2023-11-10T05:41:58.216Z,8.10
2023-11-10T05:44:26.503Z,7.90
2023-11-10T05:46:53.985Z,8.40
2023-11-10T05:49:21.365Z,8.30
2023-11-10T05:51:49.913Z,8.10
2023-11-10T05:54:19.233Z,8.40
2023-11-10T05:56:47.664Z,8.30
2023-11-10T05:59:15.271Z,8.20
2023-11-10T06:01:42.786Z,9.20
2023-11-10T06:04:19.588Z,8.80
2023-11-10T06:06:53.907Z,8.70
2023-11-10T06:09:23.574Z,7.80
2023-11-10T06:11:56.095Z,7.40
2023-11-10T06:14:23.863Z,7.90
2023-11-10T06:16:51.146Z,8.00
2023-11-10T06:19:18.783Z,7.80
2023-11-10T06:21:46.263Z,8.50
2023-11-10T06:24:13.369Z,8.50
2023-11-10T06:26:40.654Z,7.90
2023-11-10T06:29:07.998Z,8.50
2023-11-10T06:31:35.316Z,9.10
2023-11-10T06:34:03.487Z,9.60
2023-11-10T06:36:31.097Z,9.50
2023-11-10T06:38:58.343Z,9.40
2023-11-10T06:41:25.554Z,8.80
2023-11-10T06:43:53.012Z,8.60
2023-11-10T06:46:29.246Z,8.50
2023-11-10T06:48:57.411Z,8.10
2023-11-10T06:51:25.290Z,8.80
2023-11-10T06:53:52.599Z,8.70
2023-11-10T06:56:20.222Z,8.00
2023-11-10T06:58:47.901Z,8.20
2023-11-10T07:01:15.041Z,8.80
2023-11-10T07:03:42.821Z,8.60
2023-11-10T07:06:10.470Z,7.80
2023-11-10T07:08:40.238Z,7.70
2023-11-10T07:11:09.144Z,7.80
2023-11-10T07:13:38.469Z,7.80
2023-11-10T07:16:07.926Z,7.80
2023-11-10T07:18:35.481Z,8.70
2023-11-10T07:21:02.948Z,8.60
2023-11-10T07:23:30.477Z,8.40
2023-11-10T07:25:57.759Z,9.20
2023-11-10T07:28:25.449Z,10.10
2023-11-10T07:30:53.191Z,10.50
2023-11-10T07:33:20.508Z,9.30
2023-11-10T07:35:48.254Z,9.50
2023-11-10T07:38:15.522Z,9.00
2023-11-10T07:40:43.104Z,9.30
2023-11-10T07:43:11.726Z,10.60
2023-11-10T07:45:41.144Z,10.20
2023-11-10T07:48:09.856Z,10.60
2023-11-10T07:50:37.321Z,9.50
2023-11-10T07:53:04.638Z,9.20
2023-11-10T07:55:31.845Z,9.20
2023-11-10T07:57:59.158Z,8.50
2023-11-10T08:00:26.516Z,9.40
2023-11-10T08:02:55.332Z,8.50
2023-11-10T08:05:23.645Z,8.70
2023-11-10T08:14:29.359Z,8.70
2023-11-10T08:16:56.779Z,9.20
2023-11-10T08:19:23.884Z,9.00
2023-11-10T08:21:51.539Z,9.40
2023-11-10T08:24:19.203Z,9.90
2023-11-10T08:26:46.475Z,8.90
2023-11-10T08:29:14.729Z,8.60
2023-11-10T08:31:43.035Z,9.70
2023-11-10T08:34:10.681Z,9.80
2023-11-10T08:36:40.113Z,8.70
2023-11-10T08:39:08.143Z,8.50
2023-11-10T08:41:35.477Z,8.30
2023-11-10T08:44:05.683Z,7.50
2023-11-10T08:46:34.738Z,8.50
2023-11-10T08:49:02.374Z,9.50
2023-11-10T08:51:29.945Z,9.00
2023-11-10T08:53:58.684Z,8.70
2023-11-10T08:56:26.874Z,9.60
2023-11-10T08:58:54.743Z,10.60
2023-11-10T09:01:22.481Z,10.90
2023-11-10T09:10:50.544Z,12.90
2023-11-10T09:13:17.999Z,10.80
2023-11-10T09:15:51.561Z,12.80
2023-11-10T09:18:24.682Z,9.80
2023-11-10T09:20:52.006Z,9.80
2023-11-10T09:23:19.237Z,9.50
2023-11-10T09:25:46.509Z,9.90
2023-11-10T09:28:13.835Z,10.60
2023-11-10T09:30:41.044Z,10.80
2023-11-10T09:33:08.211Z,10.80
2023-11-10T09:35:37.424Z,11.70
2023-11-10T09:38:05.108Z,11.70
2023-11-10T09:40:32.435Z,10.20
2023-11-10T09:43:00.542Z,11.10
2023-11-10T09:45:28.211Z,11.80
2023-11-10T09:47:56.003Z,12.70
2023-11-10T09:50:24.488Z,12.70
2023-11-10T09:52:52.164Z,13.40
2023-11-10T09:55:19.810Z,13.50
2023-11-10T09:57:51.112Z,12.70
2023-11-10T10:00:20.157Z,11.70
2023-11-10T10:02:47.367Z,10.30
2023-11-10T10:05:14.888Z,9.40
2023-11-10T10:07:42.017Z,8.90
2023-11-10T10:10:12.653Z,9.10
2023-11-10T10:12:41.095Z,9.20
2023-11-10T10:15:09.561Z,10.40
2023-11-10T10:17:40.149Z,9.50
2023-11-10T10:20:11.652Z,10.20
2023-11-10T10:22:49.794Z,10.90
2023-11-10T10:25:18.578Z,10.00
2023-11-10T10:27:48.421Z,8.90
2023-11-10T10:30:16.441Z,7.80
2023-11-10T10:32:43.846Z,8.30
2023-11-10T10:35:13.388Z,7.50
2023-11-10T10:37:41.913Z,7.60
2023-11-10T10:40:15.359Z,8.00
2023-11-10T10:42:44.214Z,7.80
2023-11-10T10:45:14.533Z,8.40
2023-11-10T10:47:42.422Z,7.90
2023-11-10T10:50:11.885Z,7.00
2023-11-10T10:52:39.069Z,8.00
2023-11-10T10:55:07.704Z,7.30
2023-11-10T10:57:35.548Z,7.90
2023-11-10T11:00:07.335Z,7.40
2023-11-10T11:02:35.947Z,6.90
2023-11-10T11:05:29.603Z,6.90
2023-11-10T11:08:06.051Z,6.80
2023-11-10T11:10:55.843Z,6.80
2023-11-10T11:13:42.812Z,6.70
2023-11-10T11:16:25.603Z,7.60
2023-11-10T11:19:12.065Z,7.10
2023-11-10T11:21:40.236Z,7.10
2023-11-10T11:24:11.213Z,7.40
2023-11-10T11:26:38.325Z,7.30
2023-11-10T11:29:11.032Z,7.80
2023-11-10T11:31:46.399Z,7.30
2023-11-10T11:34:15.562Z,7.70
2023-11-10T11:36:47.360Z,7.60
2023-11-10T11:39:17.602Z,7.60
2023-11-10T11:41:51.859Z,8.20
2023-11-10T11:44:33.828Z,7.40
2023-11-10T11:47:13.201Z,8.40
2023-11-10T11:49:43.626Z,8.50
2023-11-10T11:52:12.813Z,7.60
2023-11-10T11:54:41.278Z,7.40
2023-11-10T11:57:08.716Z,7.80
2023-11-10T11:59:37.563Z,8.20
2023-11-10T12:02:07.955Z,7.40
2023-11-10T12:04:35.564Z,6.10
2023-11-10T16:20:59.805Z,14.50
2023-11-10T16:23:27.046Z,16.40
2023-11-10T16:25:54.482Z,15.80
2023-11-10T16:28:21.939Z,14.70
2023-11-10T16:30:49.653Z,15.20
2023-11-10T16:33:18.563Z,15.50
2023-11-10T16:35:46.185Z,16.20
2023-11-10T16:38:14.836Z,14.80
2023-11-10T16:40:44.743Z,13.90
2023-11-10T16:43:12.261Z,14.10
2023-11-10T16:45:40.586Z,13.80
2023-11-10T16:48:09.489Z,12.40
2023-11-10T16:50:37.252Z,13.10
2023-11-10T16:53:06.046Z,12.50
2023-11-10T17:02:07.608Z,12.30
2023-11-10T17:04:35.776Z,13.50
2023-11-10T17:07:03.310Z,14.50
2023-11-10T17:09:31.486Z,15.30
2023-11-10T17:11:59.485Z,15.00
2023-11-10T17:14:27.694Z,15.50
2023-11-10T17:16:56.107Z,15.30
2023-11-10T17:19:23.914Z,15.00
2023-11-10T17:21:53.908Z,15.00
2023-11-10T17:24:22.086Z,14.70
2023-11-10T17:26:51.205Z,14.90
2023-11-10T17:29:18.445Z,14.20
2023-11-10T17:31:46.235Z,14.30
2023-11-10T17:34:13.400Z,13.10
2023-11-10T17:36:40.764Z,14.40
2023-11-10T17:39:08.278Z,14.90
2023-11-10T17:41:35.726Z,15.00
2023-11-10T17:44:03.140Z,14.00
2023-11-10T17:46:30.879Z,14.30
2023-11-10T17:48:58.665Z,14.80
2023-11-10T17:51:26.092Z,15.20
2023-11-10T17:53:53.676Z,14.20
2023-11-10T17:56:20.967Z,14.30
2023-11-10T17:58:49.539Z,14.70
2023-11-10T18:01:17.162Z,15.70
2023-11-10T18:03:45.435Z,14.20
2023-11-10T18:06:13.002Z,14.00
2023-11-10T18:08:43.280Z,13.50
2023-11-10T18:11:10.827Z,15.10
2023-11-10T18:13:39.452Z,14.80
2023-11-10T18:16:07.294Z,14.60
2023-11-10T18:18:34.756Z,14.00
2023-11-10T18:21:01.760Z,14.00
2023-11-10T18:23:31.558Z,14.10
2023-11-10T18:25:58.667Z,14.20
2023-11-10T18:28:25.953Z,14.00
2023-11-10T18:30:54.431Z,14.40
2023-11-10T18:33:22.094Z,14.60
2023-11-10T18:35:49.357Z,14.50
2023-11-10T18:38:16.763Z,14.30
2023-11-10T18:40:45.857Z,14.10
2023-11-10T18:43:13.480Z,15.30
2023-11-10T18:45:41.245Z,14.80
2023-11-10T18:48:09.623Z,15.30
2023-11-10T18:50:38.051Z,14.70
2023-11-10T18:53:25.190Z,15.00
2023-11-10T18:55:52.858Z,14.00
2023-11-10T18:58:24.255Z,13.90
2023-11-10T19:00:51.734Z,13.60
2023-11-10T19:03:19.420Z,14.20
2023-11-10T19:05:46.855Z,14.50
2023-11-10T19:08:14.301Z,14.20
2023-11-10T19:10:41.658Z,14.30
2023-11-10T19:13:09.149Z,14.30
2023-11-10T19:15:36.899Z,15.10
2023-11-10T19:18:04.737Z,12.10
2023-11-10T19:20:32.135Z,14.20
2023-11-10T19:23:01.298Z,13.60
2023-11-10T19:25:31.024Z,14.50
2023-11-10T19:27:58.526Z,13.70
2023-11-10T19:30:26.357Z,13.70
2023-11-10T19:32:53.745Z,12.90
2023-11-10T19:35:21.570Z,13.50
2023-11-10T19:37:49.945Z,12.90
2023-11-10T19:40:17.672Z,13.30
2023-11-10T19:42:45.803Z,12.40
2023-11-10T19:45:14.069Z,13.80
2023-11-10T19:55:07.477Z,13.20
2023-11-10T19:57:36.298Z,13.40
2023-11-10T20:02:45.661Z,12.60
2023-11-10T20:05:14.949Z,13.20
2023-11-10T20:07:42.465Z,13.30
2023-11-10T20:10:10.936Z,13.80
2023-11-10T20:12:38.564Z,12.60
2023-11-10T20:15:07.961Z,13.90
2023-11-10T20:17:37.105Z,13.10
2023-11-10T20:20:05.366Z,14.20
2023-11-10T20:22:33.167Z,13.90
2023-11-10T20:25:00.445Z,14.60
2023-11-10T20:27:27.780Z,13.80
2023-11-10T20:29:56.161Z,13.70
2023-11-10T20:32:27.762Z,13.80
2023-11-10T20:34:55.541Z,13.60
2023-11-10T20:37:22.897Z,14.40
2023-11-10T20:39:50.893Z,13.50
2023-11-10T20:42:38.705Z,14.30
2023-11-10T20:45:07.594Z,13.70
2023-11-10T20:47:35.679Z,13.30
2023-11-10T20:50:03.322Z,13.40
2023-11-10T20:52:30.584Z,12.80
2023-11-10T20:54:57.805Z,12.60
2023-11-10T20:57:25.774Z,13.20
2023-11-10T20:59:53.463Z,13.30
2023-11-10T21:02:21.151Z,12.90
2023-11-10T21:04:52.027Z,11.60
2023-11-10T21:07:19.941Z,12.90
2023-11-10T21:09:47.282Z,11.90
2023-11-10T21:12:14.807Z,12.90
2023-11-10T21:14:42.471Z,12.70
2023-11-10T21:17:11.841Z,12.60
2023-11-10T21:19:40.763Z,12.20
2023-11-10T21:22:07.978Z,12.40
2023-11-10T21:24:36.262Z,13.00
2023-11-10T21:27:03.745Z,15.30
2023-11-10T21:29:31.889Z,14.10
2023-11-10T21:39:38.803Z,11.70
2023-11-10T21:42:06.972Z,11.40
2023-11-10T21:44:35.031Z,12.10
2023-11-10T21:47:02.883Z,11.40
2023-11-10T21:49:30.965Z,13.20
2023-11-10T21:51:57.957Z,12.20
2023-11-10T21:54:26.602Z,11.40
2023-11-10T21:56:54.497Z,10.90
2023-11-10T21:59:22.331Z,11.90
2023-11-10T22:01:49.357Z,11.40
2023-11-10T22:04:16.462Z,10.90
2023-11-10T22:06:44.239Z,11.30
2023-11-10T22:09:12.901Z,12.50
2023-11-10T22:11:40.359Z,11.80
2023-11-10T22:14:08.532Z,11.70
2023-11-10T22:16:36.001Z,11.20
2023-11-10T22:19:03.748Z,11.20
2023-11-10T22:21:31.576Z,11.00
2023-11-10T22:23:59.148Z,11.50
2023-11-10T22:26:27.251Z,10.60
2023-11-10T22:28:54.907Z,11.20
2023-11-10T22:31:22.297Z,10.80
2023-11-10T22:33:50.087Z,11.00
2023-11-10T22:36:17.702Z,10.80
2023-11-10T22:38:45.593Z,10.40
2023-11-10T22:41:12.806Z,10.50
2023-11-10T22:43:41.032Z,10.90
2023-11-10T22:46:09.397Z,11.40
2023-11-10T22:48:36.916Z,10.60
2023-11-10T22:51:04.732Z,10.90
2023-11-10T22:53:32.567Z,10.70
2023-11-10T22:56:00.053Z,10.20
2023-11-10T22:58:27.975Z,10.60
2023-11-10T23:00:55.870Z,10.30
2023-11-10T23:03:23.647Z,10.30
2023-11-10T23:05:50.985Z,10.30
2023-11-10T23:08:19.302Z,10.90
2023-11-10T23:10:46.687Z,10.60
2023-11-10T23:13:14.719Z,11.30
2023-11-10T23:15:42.112Z,10.60
2023-11-10T23:18:11.724Z,10.10
2023-11-10T23:20:39.903Z,11.20
2023-11-10T23:23:07.925Z,10.40
2023-11-10T23:25:38.884Z,10.00
2023-11-10T23:28:06.429Z,9.30
2023-11-10T23:30:35.614Z,10.90
2023-11-10T23:33:03.305Z,10.40
2023-11-10T23:35:31.726Z,10.20
2023-11-10T23:37:59.026Z,10.30
2023-11-10T23:40:27.047Z,9.90
2023-11-10T23:42:55.358Z,8.80
2023-11-10T23:45:23.412Z,9.70
2023-11-10T23:47:51.916Z,9.70
2023-11-10T23:50:19.231Z,10.40
2023-11-10T23:52:47.453Z,10.60
2023-11-10T23:55:14.766Z,11.10
2023-11-10T23:57:42.012Z,11.00
